Time;durP1;ratioP1;P1;durP2;ratioP2;P2;SDS_P1;SDS_P2;PMS_P1;PMS_P2;Temp;Humidity;BMP_temperature;BMP_pressure;BME280_temperature;BME280_humidity;BME280_pressure;Samples;Min_cycle;Max_cycle;Signal;HPM_P1;HPM_P2
2023/01/25 00:01:19;;;;;;;28.40;23.30;;;5.90;99.90;;;;;;6224858;28;20753;-64
2023/01/25 00:04:23;;;;;;;34.00;21.83;;;6.00;99.90;;;;;;6224875;28;20443;-65
2023/01/25 00:07:26;;;;;;;26.30;19.50;;;5.90;99.90;;;;;;6224856;28;20440;-66
2023/01/25 00:10:29;;;;;;;32.60;22.17;;;6.00;99.90;;;;;;6224789;28;20440;-66
2023/01/25 00:13:34;;;;;;;26.20;20.57;;;5.90;99.90;;;;;;6224847;28;20948;-67
2023/01/25 00:16:37;;;;;;;33.50;22.63;;;5.90;99.90;;;;;;6234492;28;20474;-63
2023/01/25 00:19:41;;;;;;;29.13;22.23;;;6.00;99.90;;;;;;6249252;28;20478;-65
2023/01/25 00:22:44;;;;;;;26.70;21.50;;;6.00;99.90;;;;;;6246660;28;20962;-65
2023/01/25 00:25:47;;;;;;;20.27;17.47;;;6.00;99.90;;;;;;6247822;28;20463;-66
2023/01/25 00:28:53;;;;;;;19.80;16.70;;;6.00;99.90;;;;;;6248715;28;20462;-65
2023/01/25 00:32:08;;;;;;;17.60;13.80;;;6.10;99.90;;;;;;6246520;28;20475;-65
2023/01/25 00:35:12;;;;;;;14.47;13.00;;;6.10;99.90;;;;;;6249369;28;20464;-65
2023/01/25 00:38:27;;;;;;;19.57;14.33;;;6.10;99.90;;;;;;6249034;28;20493;-66
2023/01/25 00:41:31;;;;;;;15.10;13.50;;;6.10;99.90;;;;;;6250053;28;20840;-66
2023/01/25 00:44:36;;;;;;;17.13;12.97;;;6.10;99.90;;;;;;6257020;28;20561;-66
2023/01/25 00:47:39;;;;;;;16.20;14.50;;;6.00;99.90;;;;;;6254668;28;20470;-65
2023/01/25 00:50:42;;;;;;;15.57;13.10;;;6.00;99.90;;;;;;6278981;28;20450;-65
2023/01/25 00:53:45;;;;;;;16.37;13.50;;;5.90;99.90;;;;;;6254431;28;20667;-66
2023/01/25 00:56:51;;;;;;;15.20;13.20;;;5.90;99.90;;;;;;6251619;28;20920;-66
2023/01/25 00:59:56;;;;;;;17.00;13.83;;;5.90;99.90;;;;;;6250467;28;20486;-65
2023/01/25 01:02:59;;;;;;;17.97;13.77;;;5.90;99.90;;;;;;6246588;28;20471;-65
2023/01/25 01:06:04;;;;;;;17.17;13.40;;;5.90;99.90;;;;;;6252994;28;20474;-65
2023/01/25 01:09:12;;;;;;;17.93;13.87;;;5.90;99.90;;;;;;6252739;28;20482;-65
2023/01/25 01:12:15;;;;;;;16.80;15.03;;;5.80;99.90;;;;;;6253114;28;20471;-65
2023/01/25 01:15:20;;;;;;;17.13;13.50;;;5.80;99.90;;;;;;6252831;28;20467;-66
2023/01/25 01:18:23;;;;;;;17.00;13.90;;;5.70;99.90;;;;;;6252667;28;20490;-66
2023/01/25 01:21:26;;;;;;;19.20;14.40;;;5.70;99.90;;;;;;6252350;28;20475;-66
2023/01/25 01:24:30;;;;;;;21.37;14.40;;;5.70;99.90;;;;;;6252550;28;20475;-65
2023/01/25 01:27:33;;;;;;;16.03;14.00;;;5.70;99.90;;;;;;6252027;28;20471;-64
2023/01/25 01:30:38;;;;;;;16.17;13.53;;;5.60;99.90;;;;;;6251816;28;20978;-60
2023/01/25 01:33:42;;;;;;;19.70;15.10;;;5.60;99.90;;;;;;6251465;28;20829;-60
2023/01/25 01:36:45;;;;;;;17.97;15.60;;;5.50;99.90;;;;;;6251796;28;20484;-60
2023/01/25 01:39:48;;;;;;;18.30;15.17;;;5.50;99.90;;;;;;6251106;28;20961;-60
2023/01/25 01:42:59;;;;;;;20.17;15.20;;;5.50;99.90;;;;;;6252139;28;20474;-65
2023/01/25 01:46:06;;;;;;;19.37;14.97;;;5.50;99.90;;;;;;6251859;28;20472;-66
2023/01/25 01:49:15;;;;;;;18.37;14.00;;;5.60;99.90;;;;;;6249656;28;20478;-65
2023/01/25 01:52:21;;;;;;;19.60;15.50;;;5.60;99.90;;;;;;6251093;28;20793;-61
2023/01/25 01:55:25;;;;;;;17.57;15.00;;;5.60;99.90;;;;;;6251458;28;20431;-61
2023/01/25 01:58:30;;;;;;;17.03;14.10;;;5.50;99.90;;;;;;6250426;28;21164;-61
2023/01/25 02:01:35;;;;;;;18.90;13.57;;;5.60;99.90;;;;;;6250797;28;20505;-61
2023/01/25 02:04:38;;;;;;;19.37;15.20;;;5.60;99.90;;;;;;6251261;28;20761;-61
2023/01/25 02:07:41;;;;;;;20.00;15.33;;;5.60;99.90;;;;;;6250908;28;20467;-61
2023/01/25 02:10:45;;;;;;;16.10;13.40;;;5.60;99.90;;;;;;6249942;28;20467;-61
2023/01/25 02:13:49;;;;;;;19.80;15.60;;;5.60;99.90;;;;;;6251205;28;20478;-61
2023/01/25 02:16:54;;;;;;;20.07;14.50;;;5.60;99.90;;;;;;6251262;28;20474;-61
2023/01/25 02:20:01;;;;;;;17.70;14.83;;;5.60;99.90;;;;;;6250077;28;20471;-61
2023/01/25 02:23:11;;;;;;;20.07;14.77;;;5.60;99.90;;;;;;6250151;28;20475;-62
2023/01/25 02:26:17;;;;;;;19.13;14.60;;;5.60;99.90;;;;;;6249168;28;20478;-61
2023/01/25 02:29:22;;;;;;;19.00;14.87;;;5.70;99.90;;;;;;6251432;28;20485;-61
2023/01/25 02:32:27;;;;;;;18.93;15.20;;;5.70;99.90;;;;;;6250812;28;20483;-61
2023/01/25 02:35:40;;;;;;;20.13;15.07;;;5.70;99.90;;;;;;6250722;28;20978;-61
2023/01/25 02:38:48;;;;;;;20.20;14.00;;;5.70;99.90;;;;;;6249713;28;20490;-61
2023/01/25 02:41:52;;;;;;;21.13;16.20;;;5.70;99.90;;;;;;6247481;28;20959;-59
2023/01/25 02:44:55;;;;;;;19.17;16.57;;;5.70;99.90;;;;;;6248933;28;20463;-61
2023/01/25 02:47:59;;;;;;;16.80;14.67;;;5.70;99.90;;;;;;6250181;28;20472;-65
2023/01/25 02:51:02;;;;;;;17.80;15.80;;;5.80;99.90;;;;;;6250848;28;20463;-66
2023/01/25 02:54:07;;;;;;;18.07;15.17;;;5.70;99.90;;;;;;6249611;28;20480;-65
2023/01/25 02:57:12;;;;;;;22.90;17.93;;;5.50;99.90;;;;;;6254237;28;20471;-66
2023/01/25 03:00:15;;;;;;;18.47;14.93;;;5.40;99.90;;;;;;6252163;28;20463;-64
2023/01/25 03:03:19;;;;;;;18.33;15.13;;;5.40;99.90;;;;;;6249263;28;20471;-63
2023/01/25 03:06:22;;;;;;;17.70;14.63;;;5.30;99.90;;;;;;6249299;28;20994;-59
2023/01/25 03:09:25;;;;;;;22.07;15.60;;;5.20;99.90;;;;;;6246934;28;20474;-59
2023/01/25 03:12:30;;;;;;;16.87;14.30;;;5.10;99.90;;;;;;6240841;28;20463;-59
2023/01/25 03:15:33;;;;;;;17.20;14.70;;;5.20;99.90;;;;;;6249037;28;20467;-59
2023/01/25 03:18:37;;;;;;;20.53;14.63;;;5.20;99.90;;;;;;6248295;28;20482;-59
2023/01/25 03:21:40;;;;;;;17.27;13.57;;;5.10;99.90;;;;;;6246882;28;20505;-60
2023/01/25 03:24:44;;;;;;;18.10;13.63;;;5.20;99.90;;;;;;6248263;28;20474;-66
2023/01/25 03:27:48;;;;;;;15.70;13.70;;;5.10;99.90;;;;;;6248731;28;20478;-60
2023/01/25 03:30:53;;;;;;;26.50;15.53;;;5.20;99.90;;;;;;6246057;28;20971;-60
2023/01/25 03:33:56;;;;;;;14.97;12.90;;;5.20;99.90;;;;;;6248245;28;20804;-59
2023/01/25 03:36:59;;;;;;;19.13;14.30;;;5.10;99.90;;;;;;6249151;28;20467;-59
2023/01/25 03:40:03;;;;;;;17.93;13.20;;;5.10;99.90;;;;;;6248892;28;20495;-59
2023/01/25 03:43:07;;;;;;;19.83;13.60;;;5.10;99.90;;;;;;6246290;28;20467;-60
2023/01/25 03:46:10;;;;;;;18.50;13.17;;;5.10;99.90;;;;;;6248568;28;21016;-59
2023/01/25 03:49:13;;;;;;;15.27;12.17;;;5.20;99.90;;;;;;6249432;28;20471;-60
2023/01/25 03:52:17;;;;;;;17.20;13.77;;;5.30;99.90;;;;;;6249360;28;20786;-59
2023/01/25 03:55:20;;;;;;;17.90;14.50;;;5.30;99.90;;;;;;6249875;28;20455;-59
2023/01/25 03:58:25;;;;;;;17.00;13.57;;;5.40;99.90;;;;;;6248844;28;20486;-60
2023/01/25 04:01:28;;;;;;;18.83;14.10;;;5.40;99.90;;;;;;6225686;28;20884;-59
2023/01/25 04:04:31;;;;;;;18.30;14.57;;;5.40;99.90;;;;;;6224956;28;20444;-59
2023/01/25 04:07:34;;;;;;;18.30;13.80;;;5.50;99.90;;;;;;6225331;28;20444;-59
2023/01/25 04:10:37;;;;;;;15.60;12.20;;;5.50;99.90;;;;;;6224863;28;21117;-59
2023/01/25 04:13:42;;;;;;;18.20;13.37;;;5.50;99.90;;;;;;6220274;28;20468;-59
2023/01/25 04:16:45;;;;;;;16.13;13.47;;;5.50;99.90;;;;;;6225510;28;20476;-65
2023/01/25 04:19:48;;;;;;;17.23;13.40;;;5.50;99.90;;;;;;6225903;28;20467;-65
2023/01/25 04:22:51;;;;;;;19.27;14.10;;;5.40;99.90;;;;;;6228773;28;20495;-65
2023/01/25 04:25:55;;;;;;;15.90;13.60;;;5.40;99.90;;;;;;6237019;28;20471;-65
2023/01/25 04:29:00;;;;;;;18.13;13.57;;;5.40;99.90;;;;;;6254189;28;20474;-66
2023/01/25 04:32:04;;;;;;;18.47;14.07;;;5.30;99.90;;;;;;6254470;28;20479;-66
2023/01/25 04:35:08;;;;;;;20.77;14.97;;;5.30;99.90;;;;;;6254309;28;20474;-65
2023/01/25 04:38:12;;;;;;;17.40;13.17;;;5.30;99.90;;;;;;6253919;28;20490;-61
2023/01/25 04:41:15;;;;;;;19.77;13.97;;;5.30;99.90;;;;;;6253684;28;20935;-61
2023/01/25 04:44:20;;;;;;;19.07;14.53;;;5.30;99.90;;;;;;6253371;28;20562;-61
2023/01/25 04:47:23;;;;;;;19.37;14.67;;;5.30;99.90;;;;;;6253346;28;20982;-61
2023/01/25 04:50:26;;;;;;;27.20;19.63;;;5.30;99.90;;;;;;6253229;28;20485;-61
2023/01/25 04:53:29;;;;;;;40.57;27.70;;;5.30;99.90;;;;;;6253184;28;20822;-61
2023/01/25 04:56:34;;;;;;;26.37;18.90;;;5.30;99.90;;;;;;6253521;28;20482;-60
2023/01/25 04:59:38;;;;;;;21.60;16.90;;;5.20;99.90;;;;;;6244387;28;20626;-61
2023/01/25 05:02:42;;;;;;;24.80;18.30;;;5.20;99.90;;;;;;6229130;28;20476;-61
2023/01/25 05:05:47;;;;;;;25.83;19.37;;;5.20;99.90;;;;;;6230969;28;20476;-60
2023/01/25 05:08:50;;;;;;;29.70;16.93;;;5.10;99.90;;;;;;6230623;28;20484;-60
2023/01/25 05:11:54;;;;;;;25.40;18.77;;;5.00;99.90;;;;;;6228232;28;20487;-60
2023/01/25 05:14:58;;;;;;;25.63;18.27;;;5.00;99.90;;;;;;6228439;28;20487;-61
2023/01/25 05:18:01;;;;;;;24.53;18.73;;;5.00;99.90;;;;;;6228016;28;20483;-61
2023/01/25 05:21:56;;;;;;;23.17;18.57;;;5.00;99.90;;;;;;6228222;28;20480;-61
2023/01/25 05:24:29;;;;;;;27.80;18.67;;;5.00;99.90;;;;;;6227756;28;20480;-61
2023/01/25 05:27:32;;;;;;;24.73;17.50;;;5.00;99.90;;;;;;6248147;28;20475;-61
2023/01/25 05:30:37;;;;;;;21.60;17.83;;;5.00;99.90;;;;;;6252255;28;20592;-60
2023/01/25 05:33:41;;;;;;;22.57;17.00;;;5.10;99.90;;;;;;6252079;28;20486;-60
2023/01/25 05:36:44;;;;;;;22.13;16.43;;;5.10;99.90;;;;;;6252139;28;20471;-60
2023/01/25 05:39:47;;;;;;;21.77;16.80;;;5.10;99.90;;;;;;6251751;28;20979;-60
2023/01/25 05:42:54;;;;;;;24.20;16.27;;;5.10;99.90;;;;;;6252561;28;20973;-60
2023/01/25 05:45:59;;;;;;;25.37;16.77;;;5.10;99.90;;;;;;6252731;28;20561;-60
2023/01/25 05:49:02;;;;;;;19.47;15.50;;;5.10;99.90;;;;;;6252498;28;20938;-60
2023/01/25 05:52:05;;;;;;;24.27;16.40;;;5.10;99.90;;;;;;6252756;28;20472;-60
2023/01/25 05:55:09;;;;;;;17.13;13.33;;;5.10;99.90;;;;;;6252627;28;20474;-60
2023/01/25 05:58:15;;;;;;;21.10;16.10;;;5.20;99.90;;;;;;6252024;28;20486;-60
2023/01/25 06:01:20;;;;;;;22.53;15.20;;;5.20;99.90;;;;;;6252045;28;20486;-60
2023/01/25 06:04:23;;;;;;;17.33;12.70;;;5.20;99.90;;;;;;6252046;28;20514;-60
2023/01/25 06:07:27;;;;;;;17.60;13.20;;;5.30;99.90;;;;;;6253419;28;20443;-60
2023/01/25 06:10:30;;;;;;;18.57;13.47;;;5.30;99.90;;;;;;6252743;28;20443;-60
2023/01/25 06:13:33;;;;;;;14.40;11.47;;;5.40;99.90;;;;;;6252568;28;20443;-60
2023/01/25 06:16:38;;;;;;;15.07;12.60;;;5.40;99.90;;;;;;6251718;28;21213;-60
2023/01/25 06:19:41;;;;;;;19.10;13.70;;;5.40;99.90;;;;;;6251234;28;20474;-60
2023/01/25 06:22:49;;;;;;;14.90;11.83;;;5.50;99.90;;;;;;6242520;28;20493;-61
2023/01/25 06:25:54;;;;;;;14.77;12.17;;;5.40;99.90;;;;;;6251347;28;20773;-60
2023/01/25 06:28:57;;;;;;;14.83;11.50;;;5.40;99.90;;;;;;6251437;28;20542;-60
2023/01/25 06:32:01;;;;;;;18.90;13.33;;;5.40;99.90;;;;;;6252516;28;20463;-60
2023/01/25 06:35:05;;;;;;;15.53;12.57;;;5.40;99.90;;;;;;6251439;28;20483;-60
2023/01/25 06:38:09;;;;;;;18.83;11.87;;;5.40;99.90;;;;;;6251120;28;20494;-60
2023/01/25 06:41:12;;;;;;;15.50;11.70;;;5.40;99.90;;;;;;6251013;28;20923;-61
2023/01/25 06:44:15;;;;;;;13.67;11.27;;;5.50;99.90;;;;;;6250393;28;20516;-61
2023/01/25 06:47:20;;;;;;;16.07;12.57;;;5.50;99.90;;;;;;6250576;28;20474;-61
2023/01/25 06:50:23;;;;;;;16.70;12.87;;;5.40;99.90;;;;;;6250193;28;20971;-61
2023/01/25 06:53:27;;;;;;;16.80;12.87;;;5.40;99.90;;;;;;6250910;28;20541;-61
2023/01/25 06:56:31;;;;;;;18.17;11.87;;;5.40;99.90;;;;;;6250182;28;20483;-61
2023/01/25 06:59:34;;;;;;;16.67;12.47;;;5.40;99.90;;;;;;6243586;28;20472;-61
2023/01/25 07:02:39;;;;;;;17.47;13.57;;;5.40;99.90;;;;;;6225584;28;20471;-62
2023/01/25 07:05:42;;;;;;;20.00;12.83;;;5.40;99.90;;;;;;6225732;28;20475;-66
2023/01/25 07:08:45;;;;;;;16.97;13.33;;;5.40;99.90;;;;;;6225835;28;20785;-66
2023/01/25 07:11:49;;;;;;;17.50;13.97;;;5.40;99.90;;;;;;6226164;28;20555;-66
2023/01/25 07:14:52;;;;;;;18.07;13.70;;;5.40;99.90;;;;;;6228389;28;20468;-67
2023/01/25 07:17:56;;;;;;;18.67;14.00;;;5.40;99.90;;;;;;6228023;28;20764;-65
2023/01/25 07:21:14;;;;;;;17.03;12.20;;;5.40;99.90;;;;;;6225390;28;20826;-66
2023/01/25 07:24:19;;;;;;;16.40;13.17;;;5.50;99.90;;;;;;6225658;28;20483;-66
2023/01/25 07:27:22;;;;;;;17.23;13.20;;;5.40;99.90;;;;;;6239826;28;20569;-66
2023/01/25 07:30:25;;;;;;;14.63;12.07;;;5.30;99.90;;;;;;6249712;28;20479;-66
2023/01/25 07:33:30;;;;;;;16.10;12.90;;;5.10;99.90;;;;;;6249790;28;20870;-67
2023/01/25 07:36:33;;;;;;;26.33;13.63;;;5.10;99.90;;;;;;6249970;28;20478;-66
2023/01/25 07:39:36;;;;;;;17.30;12.33;;;5.00;99.90;;;;;;6249695;28;20502;-66
2023/01/25 07:42:39;;;;;;;18.97;13.30;;;5.00;99.90;;;;;;6249876;28;20489;-66
2023/01/25 07:45:47;;;;;;;19.60;14.10;;;5.00;99.90;;;;;;6249202;28;20485;-66
2023/01/25 07:48:52;;;;;;;20.10;14.97;;;5.00;99.90;;;;;;6247578;28;20476;-66
2023/01/25 07:51:56;;;;;;;22.17;15.53;;;4.90;99.90;;;;;;6250079;28;20464;-68
2023/01/25 07:54:59;;;;;;;21.20;15.60;;;4.80;99.90;;;;;;6249792;28;20475;-66
2023/01/25 07:58:02;;;;;;;20.00;13.83;;;4.80;99.90;;;;;;6253661;28;20479;-66
2023/01/25 08:01:09;;;;;;;19.10;15.13;;;4.80;99.90;;;;;;6254682;28;20485;-67
2023/01/25 08:04:14;;;;;;;22.67;15.17;;;4.90;99.90;;;;;;6238327;28;20483;-66
2023/01/25 08:07:19;;;;;;;22.83;15.10;;;5.00;99.90;;;;;;6242567;28;20788;-65
2023/01/25 08:10:22;;;;;;;20.77;14.17;;;5.10;99.90;;;;;;6233007;28;20460;-65
2023/01/25 08:13:25;;;;;;;18.63;12.70;;;5.30;99.90;;;;;;6255176;28;20454;-65
2023/01/25 08:16:29;;;;;;;22.87;15.80;;;5.40;99.90;;;;;;6254262;28;20446;-65
2023/01/25 08:19:34;;;;;;;25.00;15.97;;;5.40;99.90;;;;;;6245653;28;20483;-65
2023/01/25 08:22:37;;;;;;;25.00;14.53;;;5.40;99.90;;;;;;6229238;28;20977;-65
2023/01/25 08:25:41;;;;;;;24.50;16.00;;;5.40;99.90;;;;;;6234312;28;20483;-65
2023/01/25 08:28:44;;;;;;;20.90;15.27;;;5.50;99.90;;;;;;6254316;28;20471;-65
2023/01/25 08:31:47;;;;;;;23.40;17.20;;;5.60;99.90;;;;;;6254212;28;20485;-65
2023/01/25 08:34:52;;;;;;;19.67;14.90;;;5.60;99.90;;;;;;6253654;28;20462;-65
2023/01/25 08:37:55;;;;;;;20.40;15.00;;;5.60;99.90;;;;;;6253526;28;20479;-65
2023/01/25 08:41:05;;;;;;;18.33;12.77;;;5.70;99.90;;;;;;6253199;28;20485;-65
2023/01/25 08:44:09;;;;;;;18.10;13.90;;;5.80;99.90;;;;;;6253419;28;20791;-65
2023/01/25 08:47:13;;;;;;;15.63;12.60;;;5.80;99.90;;;;;;6252820;28;20486;-65
2023/01/25 08:50:17;;;;;;;17.70;14.50;;;5.90;99.90;;;;;;6252665;28;20486;-65
2023/01/25 08:53:21;;;;;;;17.90;14.80;;;6.00;99.90;;;;;;6252784;28;20494;-65
2023/01/25 08:56:24;;;;;;;20.33;14.80;;;6.00;99.90;;;;;;6252574;28;20550;-65
2023/01/25 08:59:28;;;;;;;19.40;14.53;;;6.00;99.90;;;;;;6246893;28;20802;-65
2023/01/25 09:02:31;;;;;;;19.33;14.27;;;6.10;99.90;;;;;;6234664;28;20799;-65
2023/01/25 09:05:36;;;;;;;21.80;14.53;;;6.20;99.90;;;;;;6252878;28;20481;-63
2023/01/25 09:08:40;;;;;;;15.90;12.70;;;6.30;99.90;;;;;;6252203;28;20494;-63
2023/01/25 09:11:43;;;;;;;16.50;12.80;;;6.30;99.90;;;;;;6252696;28;20474;-63
2023/01/25 09:14:46;;;;;;;16.50;12.37;;;6.40;99.90;;;;;;6252804;28;20479;-63
2023/01/25 09:17:51;;;;;;;14.33;11.40;;;6.60;99.90;;;;;;6252505;28;20486;-63
2023/01/25 09:20:56;;;;;;;16.67;10.20;;;6.60;99.90;;;;;;6252326;28;20479;-62
2023/01/25 09:24:00;;;;;;;13.67;10.10;;;6.70;99.90;;;;;;6252071;28;20482;-62
2023/01/25 09:27:09;;;;;;;12.53;10.10;;;6.80;99.90;;;;;;6252247;28;20778;-64
2023/01/25 09:30:13;;;;;;;12.00;8.97;;;6.80;99.90;;;;;;6252322;28;20796;-63
2023/01/25 09:33:24;;;;;;;11.93;10.00;;;6.80;99.90;;;;;;6254320;28;20471;-63
2023/01/25 09:36:28;;;;;;;12.97;9.70;;;6.70;99.90;;;;;;6253744;28;20849;-63
2023/01/25 09:39:31;;;;;;;13.00;9.67;;;6.70;99.90;;;;;;6244642;28;20488;-62
2023/01/25 09:43:00;;;;;;;14.80;9.83;;;6.70;99.90;;;;;;6235788;28;20484;-62
2023/01/25 09:46:14;;;;;;;12.23;10.60;;;6.70;99.90;;;;;;6224063;28;21011;-62
2023/01/25 09:49:28;;;;;;;14.33;10.77;;;6.70;99.90;;;;;;6226932;28;20491;-61
2023/01/25 09:53:11;;;;;;;16.73;10.00;;;6.60;99.90;;;;;;6227404;28;20440;-62
2023/01/25 09:56:22;;;;;;;14.00;10.40;;;6.70;99.90;;;;;;6226392;28;20473;-62
2023/01/25 09:59:30;;;;;;;14.07;10.50;;;6.70;99.90;;;;;;6232104;28;20471;-62
2023/01/25 10:02:42;;;;;;;15.63;11.40;;;6.60;99.90;;;;;;6251389;28;20478;-62
2023/01/25 10:05:48;;;;;;;17.37;12.60;;;6.60;99.90;;;;;;6251373;28;20537;-62
2023/01/25 10:09:00;;;;;;;21.00;13.70;;;6.50;99.90;;;;;;6250954;28;20509;-62
2023/01/25 10:12:10;;;;;;;22.37;15.07;;;6.50;99.90;;;;;;6251159;28;20490;-63
2023/01/25 10:15:19;;;;;;;17.33;12.73;;;6.40;99.90;;;;;;6231575;28;20472;-63
2023/01/25 10:18:31;;;;;;;21.57;11.50;;;6.40;99.90;;;;;;6226688;28;20937;-63
2023/01/25 10:21:38;;;;;;;17.13;11.90;;;6.30;99.90;;;;;;6226386;28;20484;-63
2023/01/25 10:25:00;;;;;;;16.53;11.67;;;6.30;99.90;;;;;;6226406;28;20536;-62
2023/01/25 10:28:26;;;;;;;18.10;13.37;;;6.20;99.90;;;;;;6250739;28;20928;-62
2023/01/25 10:31:39;;;;;;;13.80;10.77;;;6.20;99.90;;;;;;6250549;28;20588;-62
2023/01/25 10:34:47;;;;;;;14.50;10.87;;;6.30;99.90;;;;;;6250689;28;20958;-63
2023/01/25 10:38:04;;;;;;;15.77;12.63;;;6.40;99.90;;;;;;6224201;28;20498;-63
2023/01/25 10:41:13;;;;;;;23.60;12.40;;;6.40;99.90;;;;;;6226162;28;20479;-64
2023/01/25 10:44:24;;;;;;;20.47;13.57;;;6.40;99.90;;;;;;6226034;28;20483;-63
2023/01/25 10:47:31;;;;;;;17.47;13.40;;;6.40;99.90;;;;;;6229652;28;20778;-62
2023/01/25 10:50:46;;;;;;;20.07;14.07;;;6.40;99.90;;;;;;6250519;28;20482;-61
2023/01/25 10:53:59;;;;;;;17.93;14.13;;;6.30;99.90;;;;;;6250149;28;20486;-61
2023/01/25 10:57:07;;;;;;;18.63;13.53;;;6.20;99.90;;;;;;6250252;28;20554;-60
2023/01/25 11:00:25;;;;;;;19.40;13.57;;;6.20;99.90;;;;;;6249962;28;20471;-62
2023/01/25 11:03:37;;;;;;;19.87;14.00;;;6.20;99.90;;;;;;6249757;28;20471;-60
2023/01/25 11:06:49;;;;;;;21.77;14.20;;;6.20;99.90;;;;;;6249797;28;20482;-61
2023/01/25 11:09:52;;;;;;;19.60;14.03;;;6.20;99.90;;;;;;6249636;28;20475;-61
2023/01/25 11:13:21;;;;;;;21.60;14.70;;;6.20;99.90;;;;;;6249545;28;20502;-62
2023/01/25 11:16:30;;;;;;;18.23;13.80;;;6.30;99.90;;;;;;6250336;28;20443;-60
2023/01/25 11:19:35;;;;;;;26.37;20.33;;;6.30;99.90;;;;;;6249596;28;20455;-61
2023/01/25 11:22:51;;;;;;;34.43;27.57;;;6.30;99.90;;;;;;6249770;28;20487;-60
2023/01/25 11:26:12;;;;;;;22.00;16.30;;;6.40;99.90;;;;;;6249833;28;20468;-60
2023/01/25 11:29:18;;;;;;;25.70;22.30;;;6.40;99.90;;;;;;6249896;28;20479;-61
2023/01/25 11:32:23;;;;;;;18.77;15.17;;;6.40;99.90;;;;;;6248839;28;20493;-61
2023/01/25 11:35:32;;;;;;;19.53;16.77;;;6.40;99.90;;;;;;6249683;28;20466;-61
2023/01/25 11:38:37;;;;;;;21.10;16.80;;;6.40;99.90;;;;;;6249043;28;20498;-61
2023/01/25 11:41:55;;;;;;;21.70;15.30;;;6.40;99.90;;;;;;6226811;28;20471;-60
2023/01/25 11:45:24;;;;;;;22.87;16.57;;;6.50;99.90;;;;;;6224463;28;20858;-59
2023/01/25 11:49:04;;;;;;;23.50;16.97;;;6.60;99.90;;;;;;6246175;28;20474;-59
2023/01/25 11:52:21;;;;;;;24.20;16.10;;;6.60;99.90;;;;;;6150109;28;20522;-59
2023/01/25 11:55:28;;;;;;;21.37;16.60;;;6.70;99.90;;;;;;6153090;28;20472;-59
2023/01/25 11:59:02;;;;;;;21.80;15.23;;;6.70;99.90;;;;;;6224974;28;20467;-59
2023/01/25 12:02:37;;;;;;;21.03;16.23;;;6.80;99.90;;;;;;6225141;28;20496;-64
2023/01/25 12:05:53;;;;;;;23.00;17.50;;;6.80;99.90;;;;;;6224409;28;20579;-60
2023/01/25 12:09:18;;;;;;;20.70;15.77;;;6.90;99.90;;;;;;6224856;28;20479;-61
2023/01/25 12:12:27;;;;;;;20.60;15.40;;;6.90;99.90;;;;;;6246111;28;20812;-60
2023/01/25 12:15:43;;;;;;;24.90;17.23;;;6.90;99.90;;;;;;6249413;28;20482;-63
2023/01/25 12:19:03;;;;;;;19.70;15.43;;;6.90;99.90;;;;;;6249196;28;20808;-60
2023/01/25 12:22:31;;;;;;;19.10;14.13;;;6.90;99.90;;;;;;6248786;28;20495;-61
2023/01/25 12:25:44;;;;;;;19.67;14.30;;;6.80;99.90;;;;;;6248853;28;20823;-61
2023/01/25 12:28:51;;;;;;;21.90;15.63;;;6.80;99.90;;;;;;6249010;28;20793;-60
2023/01/25 12:31:58;;;;;;;24.33;17.10;;;6.70;99.90;;;;;;6249483;28;20501;-60
2023/01/25 12:35:21;;;;;;;21.43;16.80;;;6.50;99.90;;;;;;6249462;28;20477;-60
2023/01/25 12:38:29;;;;;;;28.33;19.00;;;6.40;99.90;;;;;;6251998;28;21002;-60
2023/01/25 12:41:39;;;;;;;24.90;17.67;;;6.30;99.90;;;;;;6245671;28;20989;-59
2023/01/25 12:44:47;;;;;;;25.33;18.10;;;6.20;99.90;;;;;;6251937;28;20685;-60
2023/01/25 12:47:56;;;;;;;24.17;18.37;;;6.20;99.90;;;;;;6244291;28;20498;-60
2023/01/25 12:51:00;;;;;;;24.57;17.57;;;6.20;99.90;;;;;;6253532;28;20537;-60
2023/01/25 12:54:10;;;;;;;23.73;18.77;;;6.20;99.90;;;;;;6253196;28;20528;-60
2023/01/25 12:57:24;;;;;;;26.53;16.77;;;6.20;99.90;;;;;;6252911;28;20471;-60
2023/01/25 13:00:34;;;;;;;25.60;17.73;;;6.10;99.90;;;;;;6252794;28;20478;-61
2023/01/25 13:03:50;;;;;;;22.53;16.43;;;6.10;99.90;;;;;;6252897;28;20479;-60
2023/01/25 13:07:01;;;;;;;21.90;15.50;;;6.10;99.90;;;;;;6252344;28;20475;-61
2023/01/25 13:10:15;;;;;;;31.37;16.03;;;6.10;99.90;;;;;;6249792;28;20484;-62
2023/01/25 13:13:25;;;;;;;26.80;16.13;;;6.00;99.90;;;;;;6227763;28;20472;-61
2023/01/25 13:16:42;;;;;;;22.17;15.87;;;6.10;99.90;;;;;;6242644;28;20463;-61
2023/01/25 13:19:45;;;;;;;19.83;13.83;;;6.00;99.90;;;;;;6250397;28;20471;-62
2023/01/25 13:22:59;;;;;;;20.77;15.30;;;5.90;99.90;;;;;;6252137;28;20463;-62
2023/01/25 13:26:45;;;;;;;20.13;15.13;;;5.80;99.90;;;;;;6252198;28;20541;-62
2023/01/25 13:29:59;;;;;;;19.00;13.97;;;5.80;99.90;;;;;;6252568;28;20494;-62
2023/01/25 13:33:05;;;;;;;18.63;14.30;;;5.80;99.90;;;;;;6252509;28;20469;-62
2023/01/25 13:36:45;;;;;;;18.33;13.80;;;5.90;99.90;;;;;;6249829;28;20613;-61
2023/01/25 13:39:52;;;;;;;19.93;12.63;;;5.70;99.90;;;;;;6215238;28;20503;-62
2023/01/25 13:43:00;;;;;;;15.87;12.43;;;5.70;99.90;;;;;;6227821;28;20542;-62
2023/01/25 13:46:06;;;;;;;16.43;12.43;;;5.70;99.90;;;;;;6227152;28;20487;-62
2023/01/25 13:49:20;;;;;;;18.50;12.03;;;5.60;99.90;;;;;;6227242;28;20488;-62
2023/01/25 13:52:25;;;;;;;19.60;12.30;;;5.60;99.90;;;;;;6227197;28;20437;-62
2023/01/25 13:55:39;;;;;;;17.07;11.37;;;5.60;99.90;;;;;;6228050;28;20539;-63
2023/01/25 13:58:46;;;;;;;19.50;12.70;;;5.60;99.90;;;;;;6227184;28;20929;-62
2023/01/25 14:01:51;;;;;;;17.20;12.43;;;5.60;99.90;;;;;;6226978;28;20483;-62
2023/01/25 14:04:55;;;;;;;19.40;13.17;;;5.50;99.90;;;;;;6226777;28;20487;-63
2023/01/25 14:07:58;;;;;;;15.17;12.20;;;5.50;99.90;;;;;;6226725;28;20491;-63
2023/01/25 14:11:03;;;;;;;17.47;13.17;;;5.60;99.90;;;;;;6237603;28;20474;-64
2023/01/25 14:14:19;;;;;;;14.90;12.20;;;5.60;99.90;;;;;;6251576;28;20804;-63
2023/01/25 14:17:23;;;;;;;17.17;12.20;;;5.50;99.90;;;;;;6251503;28;20471;-62
2023/01/25 14:20:27;;;;;;;18.67;13.13;;;5.50;99.90;;;;;;6250473;28;20471;-62
2023/01/25 14:23:33;;;;;;;15.37;11.90;;;5.50;99.90;;;;;;6250659;28;20483;-62
2023/01/25 14:26:40;;;;;;;21.43;15.40;;;5.50;99.90;;;;;;6251139;28;20487;-62
2023/01/25 14:29:48;;;;;;;25.60;17.77;;;5.50;99.90;;;;;;6250844;28;20471;-62
2023/01/25 14:32:54;;;;;;;22.77;14.77;;;5.40;99.90;;;;;;6251117;28;20466;-62
2023/01/25 14:36:05;;;;;;;18.97;11.67;;;5.50;99.90;;;;;;6249162;28;20475;-62
2023/01/25 14:39:28;;;;;;;18.40;13.50;;;5.60;99.90;;;;;;6238214;28;20472;-63
2023/01/25 14:42:33;;;;;;;17.43;12.40;;;5.70;99.90;;;;;;6239078;28;20503;-62
2023/01/25 14:45:36;;;;;;;26.30;17.10;;;5.70;99.90;;;;;;6236177;28;20471;-62
2023/01/25 14:48:42;;;;;;;18.23;13.80;;;5.60;99.90;;;;;;6249965;28;20562;-62
2023/01/25 14:51:48;;;;;;;18.80;13.80;;;5.60;99.90;;;;;;6250413;28;20481;-62
2023/01/25 14:54:54;;;;;;;20.50;13.00;;;5.40;99.90;;;;;;6238844;28;20483;-63
2023/01/25 14:58:01;;;;;;;18.87;13.73;;;5.30;99.90;;;;;;6225748;28;20496;-62
2023/01/25 15:01:04;;;;;;;19.03;12.53;;;5.30;99.90;;;;;;6225448;28;20484;-62
2023/01/25 15:04:12;;;;;;;16.80;13.23;;;5.30;99.90;;;;;;6225943;28;20493;-63
2023/01/25 15:07:44;;;;;;;16.53;13.20;;;5.30;99.90;;;;;;6225002;28;20806;-63
2023/01/25 15:10:51;;;;;;;17.13;11.87;;;5.40;99.90;;;;;;6248832;28;20538;-62
2023/01/25 15:14:04;;;;;;;16.27;12.47;;;5.40;99.90;;;;;;6247918;28;20498;-61
2023/01/25 15:17:38;;;;;;;20.20;13.47;;;5.40;99.90;;;;;;6249568;28;20482;-61
2023/01/25 15:20:42;;;;;;;23.40;13.33;;;5.40;99.90;;;;;;6250326;28;20463;-62
2023/01/25 15:23:46;;;;;;;21.27;14.17;;;5.40;99.90;;;;;;6249516;28;20788;-61
2023/01/25 15:26:51;;;;;;;20.67;14.70;;;5.20;99.90;;;;;;6246983;28;20471;-61
2023/01/25 15:29:58;;;;;;;16.63;12.80;;;5.00;99.90;;;;;;6249692;28;20475;-60
2023/01/25 15:33:02;;;;;;;20.90;15.10;;;4.90;99.90;;;;;;6249080;28;20467;-61
2023/01/25 15:36:05;;;;;;;20.93;13.77;;;4.80;99.90;;;;;;6244525;28;20478;-61
2023/01/25 15:39:13;;;;;;;20.80;14.77;;;4.90;99.90;;;;;;6224986;28;20476;-61
2023/01/25 15:42:16;;;;;;;17.60;13.50;;;4.90;99.90;;;;;;6237069;28;20955;-62
2023/01/25 15:45:21;;;;;;;20.73;14.13;;;4.50;99.90;;;;;;6247453;28;20472;-62
2023/01/25 15:48:30;;;;;;;19.53;13.70;;;4.40;99.90;;;;;;6236161;28;20471;-62
2023/01/25 15:51:35;;;;;;;20.87;14.77;;;4.40;99.90;;;;;;6249130;28;20510;-63
2023/01/25 15:54:38;;;;;;;21.13;15.07;;;4.40;99.90;;;;;;6249392;28;20471;-62
2023/01/25 15:57:47;;;;;;;19.40;14.77;;;4.60;99.90;;;;;;6240508;28;20464;-63
2023/01/25 16:00:51;;;;;;;21.47;14.77;;;4.60;99.90;;;;;;6248801;28;20594;-63
2023/01/25 16:03:58;;;;;;;27.30;17.57;;;4.50;99.90;;;;;;6248053;28;21200;-63